Aviation Digital Data Service (ADDS)

Output produced by METARs form (0456 UTC 16 February 2019)
found at http://www.aviationweather.gov/metar/data/
 
Forecast for: ETNL (LAAGE , DE)
Text: TAF ETNL 152300Z 1600/1612 21005KT 9999 NSW SCT350 BY ETGL
Forecast period: 0000 to 1200 UTC 16 February 2019
Forecast type: FROM: standard forecast or significant change
Winds: from the SSW (210 degrees) at 6 MPH (5 knots; 2.6 m/s)
Visibility: 6 or more miles 10+ km)
Ceiling: at least 12,000 feet AGL
Clouds: scattered clouds at 35000 feet AGL
Weather: NSW  (no significant weather)